Time;durP1;ratioP1;P1;durP2;ratioP2;P2;SDS_P1;SDS_P2;PMS_P1;PMS_P2;Temp;Humidity;BMP_temperature;BMP_pressure;BME280_temperature;BME280_humidity;BME280_pressure;Samples;Min_cycle;Max_cycle;Signal;HPM_P1;HPM_P2
2021/01/25 00:02:19;;;;;;;5.68;2.78;;;1.30;99.90;;;;;;4995686;28;20034;-76
2021/01/25 00:04:45;;;;;;;5.70;3.20;;;1.40;99.90;;;;;;4996162;28;20049;-76
2021/01/25 00:07:11;;;;;;;6.85;3.22;;;1.40;99.90;;;;;;4995535;28;20224;-76
2021/01/25 00:09:38;;;;;;;7.60;5.10;;;1.40;99.90;;;;;;4995839;28;20030;-76
2021/01/25 00:12:04;;;;;;;6.50;3.63;;;1.30;99.90;;;;;;4995509;28;20098;-76
2021/01/25 00:14:30;;;;;;;19.85;8.95;;;1.40;99.90;;;;;;4978866;28;20057;-76
2021/01/25 00:16:57;;;;;;;19.08;9.20;;;1.40;99.90;;;;;;4995416;28;20034;-76
2021/01/25 00:19:23;;;;;;;9.38;4.93;;;1.40;99.90;;;;;;4995854;28;20038;-76
2021/01/25 00:21:49;;;;;;;18.30;9.32;;;1.40;99.90;;;;;;4995681;28;20030;-76
2021/01/25 00:24:15;;;;;;;27.58;13.00;;;1.40;99.90;;;;;;4995005;28;20046;-76
2021/01/25 00:26:42;;;;;;;220.52;87.50;;;1.40;99.90;;;;;;4995389;28;20041;-75
2021/01/25 00:29:08;;;;;;;43.28;21.30;;;1.40;99.90;;;;;;4995029;28;20041;-76
2021/01/25 00:31:34;;;;;;;26.25;11.85;;;1.40;99.90;;;;;;4995698;28;20120;-75
2021/01/25 00:34:00;;;;;;;41.08;16.30;;;1.40;99.90;;;;;;4995137;28;20055;-76
2021/01/25 00:36:26;;;;;;;37.17;18.15;;;1.50;99.90;;;;;;4995204;28;20030;-76
2021/01/25 00:38:53;;;;;;;39.13;16.83;;;1.50;99.90;;;;;;4994688;28;20476;-76
2021/01/25 00:41:19;;;;;;;76.88;34.75;;;1.40;99.90;;;;;;4995087;28;20027;-76
2021/01/25 00:43:45;;;;;;;13.25;7.50;;;1.50;99.90;;;;;;4995194;28;20050;-76
2021/01/25 00:46:12;;;;;;;12.90;5.78;;;1.50;99.90;;;;;;4994821;28;20030;-76
2021/01/25 00:48:38;;;;;;;6.85;3.60;;;1.40;99.90;;;;;;4995342;28;20379;-76
2021/01/25 00:51:05;;;;;;;7.22;3.83;;;1.40;99.90;;;;;;4994735;28;20034;-76
2021/01/25 00:53:32;;;;;;;6.57;3.40;;;1.40;99.90;;;;;;4976715;28;20047;-76
2021/01/25 00:55:58;;;;;;;7.07;3.38;;;1.30;99.90;;;;;;4994967;28;20034;-76
2021/01/25 00:58:24;;;;;;;9.32;4.80;;;1.30;99.90;;;;;;4994786;28;20038;-75
2021/01/25 01:00:51;;;;;;;9.98;5.72;;;1.30;99.90;;;;;;4994977;28;20045;-75
2021/01/25 01:03:17;;;;;;;7.93;4.50;;;1.30;99.90;;;;;;4985716;28;20046;-75
2021/01/25 01:05:43;;;;;;;6.65;3.75;;;1.40;99.90;;;;;;4994864;28;20042;-76
2021/01/25 01:08:10;;;;;;;5.20;3.13;;;1.40;99.90;;;;;;4994644;28;20050;-76
2021/01/25 01:10:36;;;;;;;8.68;4.38;;;1.40;99.90;;;;;;4994394;28;20030;-76
2021/01/25 01:13:02;;;;;;;11.10;6.07;;;1.50;99.90;;;;;;4994322;28;20026;-76
2021/01/25 01:15:28;;;;;;;8.00;4.13;;;1.40;99.90;;;;;;4994468;28;20034;-76
2021/01/25 01:17:55;;;;;;;5.45;3.30;;;1.40;99.90;;;;;;4994329;28;20033;-74
2021/01/25 01:20:21;;;;;;;7.10;3.55;;;1.40;99.90;;;;;;4994633;28;20034;-76
2021/01/25 01:22:47;;;;;;;5.60;3.60;;;1.40;99.90;;;;;;4994255;28;20034;-75
2021/01/25 01:25:14;;;;;;;6.38;3.53;;;1.30;99.90;;;;;;4993999;28;20334;-75
2021/01/25 01:27:40;;;;;;;6.88;3.70;;;1.30;99.90;;;;;;4992966;28;20046;-75
2021/01/25 01:30:07;;;;;;;6.13;3.33;;;1.30;99.90;;;;;;4994101;28;20061;-76
2021/01/25 01:32:34;;;;;;;6.57;3.92;;;1.30;99.90;;;;;;4994428;28;20027;-75
2021/01/25 01:35:00;;;;;;;5.45;3.13;;;1.30;99.90;;;;;;4993937;28;20077;-75
2021/01/25 01:37:26;;;;;;;6.47;3.88;;;1.20;99.90;;;;;;4976638;28;20042;-76
2021/01/25 01:39:53;;;;;;;7.25;3.40;;;1.20;99.90;;;;;;4993657;28;20026;-75
2021/01/25 01:42:19;;;;;;;6.78;3.53;;;1.20;99.90;;;;;;4994075;28;20416;-75
2021/01/25 01:44:45;;;;;;;6.45;4.75;;;1.20;99.90;;;;;;4993818;28;20049;-75
2021/01/25 01:47:20;;;;;;;6.88;4.28;;;1.20;99.90;;;;;;4993430;28;20042;-76
2021/01/25 01:49:50;;;;;;;6.53;3.58;;;1.20;99.90;;;;;;4993956;28;20033;-76
2021/01/25 01:52:16;;;;;;;5.82;3.83;;;1.20;99.90;;;;;;4993600;28;20376;-76
2021/01/25 01:54:44;;;;;;;6.07;3.70;;;1.10;99.90;;;;;;4994238;28;20367;-76
2021/01/25 01:57:10;;;;;;;6.45;3.80;;;1.10;99.90;;;;;;4993180;28;20034;-75
2021/01/25 01:59:37;;;;;;;5.50;3.25;;;1.10;99.90;;;;;;4993899;28;20033;-76
2021/01/25 02:02:03;;;;;;;6.03;3.60;;;1.10;99.90;;;;;;4993319;28;20030;-76
2021/01/25 02:04:31;;;;;;;10.52;5.03;;;1.10;99.90;;;;;;4993717;28;20037;-76
2021/01/25 02:07:00;;;;;;;6.75;3.70;;;1.10;99.90;;;;;;4992515;28;20042;-75
2021/01/25 02:09:28;;;;;;;6.72;4.07;;;1.10;99.90;;;;;;4992562;28;20045;-76
2021/01/25 02:11:55;;;;;;;7.32;3.67;;;1.10;99.90;;;;;;4993406;28;20030;-75
2021/01/25 02:14:21;;;;;;;6.70;4.20;;;1.10;99.90;;;;;;4993353;28;20071;-76
2021/01/25 02:16:48;;;;;;;7.15;3.85;;;1.10;99.90;;;;;;4993530;28;20038;-76
2021/01/25 02:19:22;;;;;;;7.25;3.80;;;1.20;99.90;;;;;;4992064;28;20035;-76
2021/01/25 02:22:05;;;;;;;7.30;4.18;;;1.20;99.90;;;;;;4993658;28;20045;-75
2021/01/25 02:24:42;;;;;;;9.43;3.80;;;1.20;99.90;;;;;;4993278;28;20038;-75
2021/01/25 02:27:35;;;;;;;5.68;3.58;;;1.20;99.90;;;;;;4992898;28;20049;-75
2021/01/25 02:30:06;;;;;;;9.38;3.60;;;1.10;99.90;;;;;;4993019;28;20042;-75
2021/01/25 02:32:33;;;;;;;5.45;3.75;;;1.10;99.90;;;;;;4993351;28;20045;-75
2021/01/25 02:35:02;;;;;;;6.70;3.58;;;1.10;99.90;;;;;;4992232;28;20057;-75
2021/01/25 02:37:29;;;;;;;7.70;3.45;;;1.20;99.90;;;;;;4993082;28;20396;-76
2021/01/25 02:39:57;;;;;;;7.30;4.22;;;1.20;99.90;;;;;;4992594;28;20034;-76
2021/01/25 02:42:26;;;;;;;6.65;4.15;;;1.20;99.90;;;;;;4993091;28;20491;-76
2021/01/25 02:44:52;;;;;;;7.72;4.45;;;1.20;99.90;;;;;;4992776;28;20038;-76
2021/01/25 02:47:20;;;;;;;7.60;4.53;;;1.10;99.90;;;;;;4978649;28;20050;-75
2021/01/25 02:49:46;;;;;;;7.00;4.38;;;1.10;99.90;;;;;;4998187;28;20030;-75
2021/01/25 02:52:14;;;;;;;7.35;3.85;;;1.10;99.90;;;;;;4991628;28;20061;-76
2021/01/25 02:54:42;;;;;;;6.80;4.50;;;1.10;99.90;;;;;;4992502;28;20030;-76
2021/01/25 02:57:09;;;;;;;7.20;4.78;;;1.00;99.90;;;;;;4974467;28;20073;-76
2021/01/25 02:59:37;;;;;;;9.07;4.35;;;1.10;99.90;;;;;;4992896;28;20026;-76
2021/01/25 03:02:06;;;;;;;7.57;5.13;;;1.00;99.90;;;;;;4992441;28;20396;-76
2021/01/25 03:04:34;;;;;;;10.85;5.38;;;1.10;99.90;;;;;;4992625;28;20037;-76
2021/01/25 03:07:01;;;;;;;8.13;4.72;;;1.10;99.90;;;;;;4991962;28;20038;-75
2021/01/25 03:09:28;;;;;;;6.00;4.15;;;1.10;99.90;;;;;;4992602;28;20026;-76
2021/01/25 03:11:56;;;;;;;7.20;4.75;;;1.10;99.90;;;;;;4992437;28;20030;-76
2021/01/25 03:14:23;;;;;;;6.82;4.45;;;1.10;99.90;;;;;;4991657;28;20038;-75
2021/01/25 03:16:49;;;;;;;9.60;5.03;;;1.10;99.90;;;;;;4992383;28;20050;-76
2021/01/25 03:19:16;;;;;;;8.40;4.43;;;1.10;99.90;;;;;;4992441;28;20031;-75
2021/01/25 03:21:50;;;;;;;9.32;4.13;;;1.10;99.90;;;;;;4991762;28;20404;-76
2021/01/25 03:24:17;;;;;;;9.38;4.57;;;1.10;99.90;;;;;;4990896;28;20051;-76
2021/01/25 03:26:43;;;;;;;6.38;4.45;;;1.10;99.90;;;;;;4992704;28;20030;-76
2021/01/25 03:29:10;;;;;;;7.15;4.70;;;1.10;99.90;;;;;;4991916;28;20035;-76
2021/01/25 03:31:37;;;;;;;8.60;5.30;;;1.10;99.90;;;;;;4996078;28;20098;-76
2021/01/25 03:34:05;;;;;;;7.85;4.60;;;1.10;99.90;;;;;;5015462;28;20383;-75
2021/01/25 03:36:34;;;;;;;8.93;5.10;;;1.20;99.90;;;;;;4979771;28;20062;-75
2021/01/25 03:39:01;;;;;;;8.13;4.70;;;1.10;99.90;;;;;;4995465;28;20054;-75
2021/01/25 03:41:28;;;;;;;6.78;4.15;;;1.20;99.90;;;;;;4995306;28;20042;-75
2021/01/25 03:43:54;;;;;;;7.00;4.30;;;1.20;99.90;;;;;;4996412;28;20034;-76
2021/01/25 03:46:21;;;;;;;7.43;4.20;;;1.20;99.90;;;;;;4996078;28;20034;-75
2021/01/25 03:48:47;;;;;;;7.53;4.53;;;1.20;99.90;;;;;;4996366;28;20030;-76
2021/01/25 03:51:14;;;;;;;7.68;4.32;;;1.20;99.90;;;;;;4995648;28;20042;-76
2021/01/25 03:53:42;;;;;;;7.45;4.75;;;1.20;99.90;;;;;;4995852;28;20026;-76
2021/01/25 03:56:08;;;;;;;8.00;4.57;;;1.20;99.90;;;;;;4995731;28;20061;-75
2021/01/25 03:58:34;;;;;;;9.23;4.95;;;1.20;99.90;;;;;;4995898;28;20027;-76
2021/01/25 04:01:00;;;;;;;10.32;6.40;;;1.20;99.90;;;;;;4996007;28;20042;-75
2021/01/25 04:03:26;;;;;;;28.40;15.30;;;1.10;99.90;;;;;;4995773;28;20041;-75
2021/01/25 04:05:53;;;;;;;19.33;11.45;;;1.20;99.90;;;;;;4995931;28;20460;-75
2021/01/25 04:08:19;;;;;;;64.43;30.63;;;1.20;99.90;;;;;;4996454;28;20035;-76
2021/01/25 04:10:45;;;;;;;20.27;11.30;;;1.20;99.90;;;;;;4995750;28;20038;-76
2021/01/25 04:13:12;;;;;;;18.20;9.18;;;1.20;99.90;;;;;;4995636;28;20041;-75
2021/01/25 04:15:38;;;;;;;21.67;9.77;;;1.30;99.90;;;;;;4995992;28;20483;-76
2021/01/25 04:18:04;;;;;;;27.23;12.68;;;1.30;99.90;;;;;;4995479;28;20035;-75
2021/01/25 04:20:30;;;;;;;31.02;15.82;;;1.30;99.90;;;;;;4995562;28;20388;-75
2021/01/25 04:22:57;;;;;;;15.15;7.43;;;1.30;99.90;;;;;;4994863;28;20030;-75
2021/01/25 04:25:23;;;;;;;45.50;21.38;;;1.30;99.90;;;;;;4995514;28;20049;-75
2021/01/25 04:27:49;;;;;;;32.60;15.38;;;1.30;99.90;;;;;;4994197;28;20038;-75
2021/01/25 04:30:16;;;;;;;16.50;8.52;;;1.20;99.90;;;;;;4995205;28;20167;-75
2021/01/25 04:32:42;;;;;;;39.20;16.25;;;1.20;99.90;;;;;;4995276;28;20038;-76
2021/01/25 04:35:11;;;;;;;9.82;5.22;;;1.20;99.90;;;;;;4994817;28;20042;-75
2021/01/25 04:37:38;;;;;;;91.55;35.22;;;1.10;99.90;;;;;;4995253;28;20046;-76
2021/01/25 04:40:12;;;;;;;48.50;21.00;;;1.10;99.90;;;;;;4994727;28;20146;-76
2021/01/25 04:42:39;;;;;;;17.45;8.52;;;1.10;99.90;;;;;;4995184;28;20027;-75
2021/01/25 04:45:07;;;;;;;8.98;4.85;;;1.10;99.90;;;;;;4994912;28;20034;-75
2021/01/25 04:47:35;;;;;;;11.18;6.75;;;1.10;99.90;;;;;;4994500;28;20407;-76
2021/01/25 04:50:04;;;;;;;13.27;7.03;;;1.10;99.90;;;;;;4994902;28;20088;-75
2021/01/25 04:52:30;;;;;;;40.10;19.35;;;1.10;99.90;;;;;;4994999;28;20019;-75
2021/01/25 04:54:57;;;;;;;8.30;4.45;;;1.00;99.90;;;;;;4994496;28;20038;-74
2021/01/25 04:57:25;;;;;;;11.48;6.53;;;1.00;99.90;;;;;;4998979;28;20037;-76
2021/01/25 04:59:53;;;;;;;15.50;8.38;;;1.00;99.90;;;;;;5011535;28;20030;-75
2021/01/25 05:02:19;;;;;;;23.45;13.57;;;0.90;99.90;;;;;;4994428;28;20026;-75
2021/01/25 05:04:46;;;;;;;8.65;5.55;;;0.80;99.90;;;;;;4994615;28;20034;-75
2021/01/25 05:07:12;;;;;;;20.55;11.15;;;0.80;99.90;;;;;;4994062;28;20069;-76
2021/01/25 05:09:39;;;;;;;18.70;8.50;;;0.70;99.90;;;;;;4994898;28;20042;-76
2021/01/25 05:12:05;;;;;;;9.52;5.78;;;0.70;99.90;;;;;;4993705;28;20034;-76
2021/01/25 05:14:41;;;;;;;10.15;6.00;;;0.60;99.90;;;;;;4994371;28;20044;-76
2021/01/25 05:17:10;;;;;;;12.48;5.90;;;0.60;99.90;;;;;;4994223;28;20038;-76
2021/01/25 05:19:37;;;;;;;8.70;5.50;;;0.60;99.90;;;;;;4977434;28;20039;-76
2021/01/25 05:22:20;;;;;;;7.30;5.15;;;0.60;99.90;;;;;;4993552;28;20034;-76
2021/01/25 05:24:46;;;;;;;11.68;6.22;;;0.50;99.90;;;;;;4994935;28;20453;-76
2021/01/25 05:27:25;;;;;;;6.28;4.65;;;0.50;99.90;;;;;;4992713;28;20050;-76
2021/01/25 05:29:51;;;;;;;10.65;5.68;;;0.50;99.90;;;;;;4994718;28;20463;-76
2021/01/25 05:32:18;;;;;;;10.02;5.43;;;0.50;99.90;;;;;;4994142;28;20061;-76
2021/01/25 05:34:48;;;;;;;9.88;5.15;;;0.50;99.90;;;;;;4994331;28;20046;-76
2021/01/25 05:37:16;;;;;;;8.00;4.75;;;0.50;99.90;;;;;;4993600;28;20077;-76
2021/01/25 05:39:47;;;;;;;10.70;4.93;;;0.40;99.90;;;;;;4994488;28;20057;-77
2021/01/25 05:42:14;;;;;;;8.15;5.32;;;0.40;99.90;;;;;;4993296;28;20038;-77
2021/01/25 05:44:41;;;;;;;10.10;5.70;;;0.40;99.90;;;;;;4994032;28;20034;-76
2021/01/25 05:47:11;;;;;;;6.97;4.70;;;0.40;99.90;;;;;;4993478;28;20046;-77
2021/01/25 05:49:38;;;;;;;9.65;5.30;;;0.40;99.90;;;;;;4994340;28;20027;-77
2021/01/25 05:52:05;;;;;;;12.70;5.70;;;0.40;99.90;;;;;;4992637;28;20045;-77
2021/01/25 05:54:31;;;;;;;10.02;5.75;;;0.40;99.90;;;;;;4993640;28;20038;-77
2021/01/25 05:56:58;;;;;;;10.55;6.65;;;0.50;99.90;;;;;;4993847;28;20333;-77
2021/01/25 05:59:24;;;;;;;9.77;5.93;;;0.50;99.90;;;;;;4993722;28;20035;-76
2021/01/25 06:01:50;;;;;;;9.93;6.15;;;0.50;99.90;;;;;;4993671;28;20467;-77
2021/01/25 06:04:20;;;;;;;11.38;6.35;;;0.40;99.90;;;;;;4991817;28;20038;-77
2021/01/25 06:07:05;;;;;;;11.98;7.13;;;0.40;99.90;;;;;;4993739;28;20480;-76
2021/01/25 06:09:55;;;;;;;11.32;7.05;;;0.40;99.90;;;;;;4993807;28;20496;-77
2021/01/25 06:12:29;;;;;;;12.75;7.38;;;0.40;99.90;;;;;;4993122;28;20479;-77
2021/01/25 06:15:03;;;;;;;10.93;8.00;;;0.40;99.90;;;;;;4993671;28;20039;-77
2021/01/25 06:17:34;;;;;;;13.45;8.07;;;0.40;99.90;;;;;;4993383;28;20030;-77
2021/01/25 06:20:05;;;;;;;9.83;7.37;;;0.40;99.90;;;;;;4992997;28;20369;-76
2021/01/25 06:22:34;;;;;;;11.93;7.97;;;0.40;99.90;;;;;;4993426;28;20033;-77
2021/01/25 06:25:01;;;;;;;14.70;9.43;;;0.40;99.90;;;;;;4992470;28;20047;-76
2021/01/25 06:27:30;;;;;;;13.73;8.98;;;0.40;99.90;;;;;;4992402;28;20046;-77
2021/01/25 06:30:01;;;;;;;14.93;8.95;;;0.40;99.90;;;;;;4992934;28;20049;-77
2021/01/25 06:32:31;;;;;;;13.05;8.50;;;0.40;99.90;;;;;;4993455;28;20437;-77
2021/01/25 06:34:59;;;;;;;15.65;9.25;;;0.40;99.90;;;;;;4993262;28;20046;-77
2021/01/25 06:37:28;;;;;;;14.82;9.65;;;0.50;99.90;;;;;;4990071;28;20030;-77
2021/01/25 06:39:58;;;;;;;17.33;10.50;;;0.40;99.90;;;;;;4992827;28;20038;-77
2021/01/25 06:42:32;;;;;;;15.80;10.35;;;0.40;99.90;;;;;;4992209;28;20057;-77
2021/01/25 06:45:03;;;;;;;15.45;10.43;;;0.40;99.90;;;;;;4993157;28;20396;-77
2021/01/25 06:47:30;;;;;;;18.45;10.93;;;0.50;99.90;;;;;;4980649;28;20452;-78
2021/01/25 06:49:58;;;;;;;19.38;11.85;;;0.50;99.90;;;;;;4992761;28;20049;-78
2021/01/25 06:52:29;;;;;;;17.80;11.52;;;0.50;99.90;;;;;;4992345;28;20034;-79
2021/01/25 06:55:03;;;;;;;15.30;11.82;;;0.50;99.90;;;;;;4993074;28;20049;-79
2021/01/25 06:57:33;;;;;;;17.27;10.73;;;0.50;99.90;;;;;;4992408;28;20034;-80
2021/01/25 07:00:09;;;;;;;18.77;12.27;;;0.50;99.90;;;;;;4992790;28;20042;-78
2021/01/25 07:02:51;;;;;;;16.35;11.55;;;0.50;99.90;;;;;;5002118;28;20042;-80
2021/01/25 07:05:20;;;;;;;;;;;0.50;99.90;;;;;;4992868;28;20031;-78
2021/01/25 07:07:47;;;;;;;20.50;12.75;;;0.50;99.90;;;;;;4992481;28;19918;-80
2021/01/25 07:10:16;;;;;;;18.95;13.10;;;0.50;99.90;;;;;;4992250;28;20058;-75
2021/01/25 07:12:43;;;;;;;21.95;13.43;;;0.50;99.90;;;;;;4992743;28;20041;-75
2021/01/25 07:15:11;;;;;;;20.23;13.27;;;0.60;99.90;;;;;;4992046;28;20034;-75
2021/01/25 07:17:38;;;;;;;22.75;13.63;;;0.60;99.90;;;;;;4992335;28;20045;-75
2021/01/25 07:20:05;;;;;;;20.73;13.63;;;0.60;99.90;;;;;;4992152;28;20042;-75
2021/01/25 07:22:36;;;;;;;20.30;11.77;;;0.60;99.90;;;;;;4992593;28;20030;-75
2021/01/25 07:25:03;;;;;;;19.10;12.63;;;0.60;99.90;;;;;;4991778;28;20126;-75
2021/01/25 07:27:36;;;;;;;18.92;12.98;;;0.60;99.90;;;;;;4992234;28;20301;-75
2021/01/25 07:30:04;;;;;;;22.85;12.75;;;0.60;99.90;;;;;;4991109;28;20046;-75
2021/01/25 07:32:30;;;;;;;20.73;13.48;;;0.70;99.90;;;;;;4991516;28;20395;-75
2021/01/25 07:34:57;;;;;;;20.50;14.45;;;0.60;99.90;;;;;;4992182;28;20046;-75
2021/01/25 07:37:23;;;;;;;21.40;14.00;;;0.70;99.90;;;;;;4992050;28;20038;-75
2021/01/25 07:39:50;;;;;;;24.00;14.10;;;0.70;99.90;;;;;;4991262;28;20487;-75
2021/01/25 07:42:16;;;;;;;20.35;13.75;;;0.70;99.90;;;;;;4991999;28;20057;-75
2021/01/25 07:44:48;;;;;;;18.85;12.85;;;0.80;99.90;;;;;;4992450;28;20033;-74
2021/01/25 07:47:20;;;;;;;21.25;13.07;;;0.80;99.90;;;;;;4991668;28;20045;-76
2021/01/25 07:49:46;;;;;;;;;;;0.80;99.90;;;;;;4992913;28;20033;-75
2021/01/25 07:52:21;;;;;;;19.00;11.48;;;0.80;99.90;;;;;;4991614;28;19909;-75
2021/01/25 07:54:47;;;;;;;19.23;13.13;;;0.80;99.90;;;;;;4992855;28;20034;-75
2021/01/25 07:57:22;;;;;;;20.25;13.60;;;0.90;99.90;;;;;;4991802;28;20502;-74
2021/01/25 07:59:48;;;;;;;19.65;13.45;;;0.90;99.90;;;;;;4992565;28;20027;-75
2021/01/25 08:02:15;;;;;;;29.05;19.35;;;0.90;99.90;;;;;;4991689;28;20030;-74
2021/01/25 08:04:44;;;;;;;31.50;21.00;;;0.90;99.90;;;;;;4992356;28;20030;-74
2021/01/25 08:07:14;;;;;;;19.20;14.32;;;1.00;99.90;;;;;;4991723;28;20043;-75
2021/01/25 08:09:43;;;;;;;24.30;17.45;;;1.00;99.90;;;;;;4990090;28;20039;-75
2021/01/25 08:12:10;;;;;;;82.75;42.42;;;1.00;99.90;;;;;;4986957;28;20058;-75
2021/01/25 08:14:47;;;;;;;33.55;18.50;;;1.00;99.90;;;;;;4996268;28;20035;-76
2021/01/25 08:17:25;;;;;;;28.90;17.60;;;1.00;99.90;;;;;;4994177;28;20548;-76
2021/01/25 08:19:56;;;;;;;75.68;41.17;;;1.00;99.90;;;;;;4995699;28;20034;-75
2021/01/25 08:22:42;;;;;;;24.13;15.60;;;1.10;99.90;;;;;;4995003;28;20034;-75
2021/01/25 08:25:19;;;;;;;24.33;16.98;;;1.10;99.90;;;;;;4995456;28;20046;-73
2021/01/25 08:27:58;;;;;;;23.83;13.40;;;1.20;99.90;;;;;;4994827;28;20046;-74
2021/01/25 08:30:32;;;;;;;20.42;12.77;;;1.20;99.90;;;;;;4994734;28;20034;-75
2021/01/25 08:33:01;;;;;;;32.97;19.20;;;1.20;99.90;;;;;;4995411;28;20045;-74
2021/01/25 08:35:35;;;;;;;27.50;16.92;;;1.30;99.90;;;;;;4994740;28;20047;-73
2021/01/25 08:38:28;;;;;;;22.70;13.85;;;1.30;99.90;;;;;;4998503;28;20025;-73
2021/01/25 08:40:56;;;;;;;41.30;23.85;;;1.40;99.90;;;;;;5003234;28;20030;-74
2021/01/25 08:43:30;;;;;;;26.83;16.52;;;1.40;99.90;;;;;;5004558;28;20236;-74
2021/01/25 08:46:10;;;;;;;22.23;12.02;;;1.60;99.90;;;;;;5005148;28;20534;-74
2021/01/25 08:48:37;;;;;;;27.85;15.95;;;1.60;99.90;;;;;;5003951;28;20033;-73
2021/01/25 08:51:08;;;;;;;23.25;14.38;;;1.80;99.90;;;;;;5004136;28;20041;-75
2021/01/25 08:53:35;;;;;;;20.95;13.50;;;1.80;99.90;;;;;;5003015;28;20463;-74
2021/01/25 08:56:16;;;;;;;22.00;12.95;;;1.80;99.90;;;;;;5003454;28;20498;-74
2021/01/25 08:58:43;;;;;;;20.38;12.57;;;1.80;99.90;;;;;;5004499;28;20031;-74
2021/01/25 09:01:28;;;;;;;22.38;13.65;;;1.90;99.90;;;;;;5001972;28;20042;-74
2021/01/25 09:03:57;;;;;;;20.85;13.05;;;2.00;99.90;;;;;;4994870;28;20035;-73
2021/01/25 09:06:23;;;;;;;23.05;12.82;;;2.00;99.90;;;;;;4994206;28;20392;-74
2021/01/25 09:08:49;;;;;;;19.67;12.55;;;1.90;99.90;;;;;;4994861;28;20141;-74
2021/01/25 09:11:16;;;;;;;21.63;13.60;;;1.80;99.90;;;;;;5000511;28;20030;-74
2021/01/25 09:13:42;;;;;;;22.42;13.35;;;1.80;99.90;;;;;;5000998;28;20034;-74
2021/01/25 09:16:08;;;;;;;20.95;14.25;;;1.80;99.90;;;;;;5000081;28;20049;-75
2021/01/25 09:18:34;;;;;;;22.73;14.55;;;1.70;99.90;;;;;;5001461;28;20033;-74
2021/01/25 09:21:01;;;;;;;23.15;14.38;;;1.70;99.90;;;;;;4994686;28;20026;-74
2021/01/25 09:23:27;;;;;;;23.45;14.10;;;2.00;99.90;;;;;;4993767;28;20050;-74
2021/01/25 09:25:54;;;;;;;22.23;13.65;;;2.10;99.90;;;;;;4999639;28;20030;-74
2021/01/25 09:28:20;;;;;;;22.80;13.68;;;2.10;99.90;;;;;;4998345;28;20041;-74
2021/01/25 09:30:46;;;;;;;20.65;13.35;;;2.00;99.90;;;;;;5003501;28;20403;-74
2021/01/25 09:33:13;;;;;;;20.75;13.93;;;2.00;99.90;;;;;;5001910;28;20038;-74
2021/01/25 09:35:39;;;;;;;19.17;13.25;;;2.00;99.90;;;;;;5001917;28;20046;-74
2021/01/25 09:38:06;;;;;;;19.48;11.52;;;2.10;99.90;;;;;;5003341;28;20042;-75
2021/01/25 09:40:34;;;;;;;19.02;12.18;;;2.10;99.90;;;;;;5002564;28;20037;-74
2021/01/25 09:43:01;;;;;;;17.50;12.18;;;2.10;99.90;;;;;;5002934;28;20056;-74
2021/01/25 09:45:28;;;;;;;19.45;12.48;;;2.10;99.90;;;;;;5003132;28;20022;-74
2021/01/25 09:47:54;;;;;;;19.58;12.57;;;2.20;99.90;;;;;;5001300;28;20049;-74
2021/01/25 09:50:20;;;;;;;21.67;14.45;;;2.30;99.90;;;;;;5003451;28;20037;-74
2021/01/25 09:52:48;;;;;;;20.67;13.40;;;2.30;99.90;;;;;;5001355;28;20029;-74
2021/01/25 09:55:17;;;;;;;19.52;11.32;;;2.20;99.90;;;;;;5001058;28;20030;-75
2021/01/25 09:57:43;;;;;;;21.05;12.88;;;2.10;99.90;;;;;;4986877;28;20041;-74
2021/01/25 10:00:12;;;;;;;22.58;15.43;;;2.30;99.90;;;;;;5003351;28;20046;-74
2021/01/25 10:02:38;;;;;;;23.33;14.45;;;2.60;99.90;;;;;;4996019;28;20034;-73
2021/01/25 10:05:06;;;;;;;29.30;19.63;;;2.60;99.90;;;;;;4992836;28;20049;-74
2021/01/25 10:07:35;;;;;;;23.52;15.40;;;2.60;99.90;;;;;;4993767;28;20039;-74
2021/01/25 10:10:10;;;;;;;20.48;12.10;;;2.70;99.90;;;;;;4993770;28;20040;-74
2021/01/25 10:12:37;;;;;;;17.85;12.27;;;2.70;99.90;;;;;;4992706;28;20034;-74
2021/01/25 10:15:09;;;;;;;17.85;11.77;;;2.60;99.90;;;;;;4993801;28;20041;-74
2021/01/25 10:17:35;;;;;;;17.05;11.57;;;2.50;99.90;;;;;;4993572;28;20041;-74
2021/01/25 10:20:03;;;;;;;19.73;11.35;;;2.40;99.90;;;;;;4991023;28;20042;-73
2021/01/25 10:22:29;;;;;;;19.60;12.55;;;2.50;99.90;;;;;;4992595;28;20030;-74
2021/01/25 10:24:55;;;;;;;22.30;13.65;;;2.50;99.90;;;;;;4992776;28;20073;-74
2021/01/25 10:27:22;;;;;;;17.95;12.60;;;2.50;99.90;;;;;;4992724;28;20059;-74
2021/01/25 10:29:48;;;;;;;18.83;11.80;;;2.40;99.90;;;;;;4993431;28;20054;-74
2021/01/25 10:32:15;;;;;;;17.65;11.57;;;2.40;99.90;;;;;;4992794;28;20026;-74
2021/01/25 10:34:43;;;;;;;22.75;14.32;;;2.30;99.90;;;;;;4999943;28;20034;-74
2021/01/25 10:37:09;;;;;;;19.38;15.02;;;2.40;99.90;;;;;;4993383;28;20038;-74
2021/01/25 10:39:36;;;;;;;21.30;14.40;;;2.50;99.90;;;;;;4992636;28;20030;-74
2021/01/25 10:42:02;;;;;;;21.92;13.80;;;2.50;99.90;;;;;;4993464;28;20034;-74
2021/01/25 10:44:28;;;;;;;22.02;14.13;;;2.50;99.90;;;;;;4992569;28;20468;-74
2021/01/25 10:46:54;;;;;;;22.20;14.55;;;2.60;99.90;;;;;;4992829;28;20041;-74
2021/01/25 10:49:21;;;;;;;23.55;14.27;;;2.60;99.90;;;;;;4992897;28;20030;-74
2021/01/25 10:51:47;;;;;;;23.25;15.00;;;2.60;99.90;;;;;;4993541;28;20523;-74
2021/01/25 10:54:13;;;;;;;22.88;14.70;;;2.70;99.90;;;;;;4992274;28;20110;-74
2021/01/25 10:56:39;;;;;;;22.42;15.00;;;2.50;99.90;;;;;;4992290;28;20041;-74
2021/01/25 10:59:06;;;;;;;21.08;14.52;;;2.60;99.90;;;;;;4995171;28;20389;-74
2021/01/25 11:01:33;;;;;;;21.23;14.68;;;2.60;99.90;;;;;;5002296;28;20046;-74
2021/01/25 11:03:59;;;;;;;22.95;15.45;;;2.70;99.90;;;;;;4992855;28;20035;-74
2021/01/25 11:06:26;;;;;;;25.10;15.93;;;2.80;99.90;;;;;;4992162;28;20222;-74
2021/01/25 11:08:52;;;;;;;21.60;14.30;;;2.90;99.90;;;;;;4992651;28;20491;-74
2021/01/25 11:11:20;;;;;;;20.08;14.00;;;2.90;99.90;;;;;;4992457;28;20038;-75
2021/01/25 11:13:46;;;;;;;21.17;14.25;;;2.90;99.90;;;;;;4992736;28;20033;-74
2021/01/25 11:16:12;;;;;;;25.42;15.02;;;2.90;99.90;;;;;;4992926;28;20491;-74
2021/01/25 11:18:39;;;;;;;26.75;16.80;;;3.00;99.90;;;;;;5003892;28;20037;-73
2021/01/25 11:21:05;;;;;;;26.63;16.30;;;3.20;99.90;;;;;;4996554;28;20041;-73
2021/01/25 11:23:31;;;;;;;24.90;17.15;;;3.10;99.90;;;;;;4992928;28;20038;-75
2021/01/25 11:25:58;;;;;;;23.95;16.00;;;3.10;99.90;;;;;;4992931;28;20046;-75
2021/01/25 11:28:24;;;;;;;25.63;17.50;;;3.10;99.90;;;;;;4992404;28;20387;-75
2021/01/25 11:30:50;;;;;;;28.63;19.77;;;3.10;99.90;;;;;;4992634;28;20037;-75
2021/01/25 11:33:17;;;;;;;28.40;19.48;;;3.20;99.90;;;;;;4991998;28;20411;-74
2021/01/25 11:35:43;;;;;;;29.65;21.98;;;3.30;99.90;;;;;;4992260;28;20073;-75
2021/01/25 11:38:10;;;;;;;28.75;18.35;;;3.20;99.90;;;;;;4991864;28;20027;-75
2021/01/25 11:40:36;;;;;;;31.48;20.67;;;3.00;99.90;;;;;;4992603;28;20441;-74
2021/01/25 11:43:03;;;;;;;35.42;24.83;;;2.90;99.90;;;;;;4992550;28;20034;-75
2021/01/25 11:45:29;;;;;;;29.10;18.05;;;2.90;99.90;;;;;;4991714;28;20030;-76
2021/01/25 11:47:56;;;;;;;29.58;19.80;;;2.70;99.90;;;;;;4991421;28;20054;-74
2021/01/25 11:50:22;;;;;;;27.77;18.08;;;2.80;99.90;;;;;;4991754;28;20050;-74
2021/01/25 11:52:48;;;;;;;31.77;20.50;;;2.90;99.90;;;;;;4995215;28;20046;-75
2021/01/25 11:55:15;;;;;;;29.23;19.33;;;2.80;99.90;;;;;;4995918;28;20364;-75
2021/01/25 11:57:41;;;;;;;31.08;20.88;;;2.80;99.90;;;;;;4978381;28;20389;-75
2021/01/25 12:00:08;;;;;;;30.67;19.20;;;2.80;99.90;;;;;;4995654;28;20038;-75
2021/01/25 12:02:35;;;;;;;30.30;17.77;;;2.70;99.90;;;;;;4996432;28;20045;-74
2021/01/25 12:05:01;;;;;;;27.20;18.83;;;2.90;99.90;;;;;;4996596;28;20057;-74
2021/01/25 12:07:27;;;;;;;26.20;16.88;;;3.10;99.90;;;;;;4995679;28;20042;-74
2021/01/25 12:09:54;;;;;;;21.92;14.20;;;3.20;99.90;;;;;;4994207;28;20043;-74
2021/01/25 12:12:20;;;;;;;23.60;12.43;;;3.20;99.90;;;;;;4995454;28;20046;-74
2021/01/25 12:14:46;;;;;;;16.35;11.15;;;3.30;99.90;;;;;;4996389;28;20030;-74
2021/01/25 12:17:12;;;;;;;15.15;10.75;;;3.30;99.90;;;;;;4998989;28;20037;-74
2021/01/25 12:19:40;;;;;;;15.98;10.52;;;3.30;99.90;;;;;;5003642;28;20030;-74
2021/01/25 12:22:06;;;;;;;14.90;10.73;;;3.40;99.90;;;;;;5001382;28;20046;-74
2021/01/25 12:24:32;;;;;;;19.85;12.18;;;3.30;99.90;;;;;;5006172;28;20219;-73
2021/01/25 12:26:59;;;;;;;16.95;11.65;;;3.40;99.90;;;;;;5002525;28;20044;-74
2021/01/25 12:29:25;;;;;;;18.40;11.40;;;3.40;99.90;;;;;;5002357;28;20050;-74
2021/01/25 12:31:51;;;;;;;16.23;11.32;;;3.20;99.90;;;;;;5003758;28;20483;-74
2021/01/25 12:34:18;;;;;;;18.98;11.77;;;3.10;99.90;;;;;;5001930;28;20033;-74
2021/01/25 12:36:44;;;;;;;17.98;12.00;;;3.00;99.90;;;;;;5006187;28;20031;-74
2021/01/25 12:39:11;;;;;;;18.80;11.38;;;3.10;99.90;;;;;;5001826;28;20042;-74
2021/01/25 12:41:37;;;;;;;16.55;11.45;;;3.00;99.90;;;;;;5005984;28;20413;-74
2021/01/25 12:44:04;;;;;;;18.23;10.93;;;3.00;99.90;;;;;;5002556;28;20029;-74
2021/01/25 12:46:34;;;;;;;17.55;11.30;;;3.20;99.90;;;;;;5001953;28;20041;-74
2021/01/25 12:49:03;;;;;;;16.88;10.98;;;3.20;99.90;;;;;;5003336;28;20030;-74
2021/01/25 12:51:29;;;;;;;15.35;10.40;;;3.20;99.90;;;;;;5004356;28;20034;-74